sensor_id;sensor_type;location;lat;lon;timestamp;pressure;altitude;pressure_sealevel;temperature;humidity
41312;BME280;27061;41.648;24.568;2022-10-04T00:02:52;85938.59;;;8.80;56.56
41312;BME280;27061;41.648;24.568;2022-10-04T00:05:23;85944.22;;;8.60;56.17
41312;BME280;27061;41.648;24.568;2022-10-04T00:07:54;85938.72;;;8.56;57.13
41312;BME280;27061;41.648;24.568;2022-10-04T00:10:30;85944.22;;;8.64;56.38
41312;BME280;27061;41.648;24.568;2022-10-04T00:13:05;85953.19;;;8.63;56.71
41312;BME280;27061;41.648;24.568;2022-10-04T00:15:35;85943.66;;;8.31;56.78
41312;BME280;27061;41.648;24.568;2022-10-04T00:26:00;85938.81;;;8.30;58.39
41312;BME280;27061;41.648;24.568;2022-10-04T00:31:26;85948.44;;;8.39;57.07
41312;BME280;27061;41.648;24.568;2022-10-04T00:44:39;85955.38;;;8.20;57.97
41312;BME280;27061;41.648;24.568;2022-10-04T00:50:04;85941.59;;;8.26;58.64
41312;BME280;27061;41.648;24.568;2022-10-04T00:52:35;85907.84;;;8.11;58.27
41312;BME280;27061;41.648;24.568;2022-10-04T00:55:07;85918.22;;;8.04;58.16
41312;BME280;27061;41.648;24.568;2022-10-04T00:57:41;85896.22;;;7.84;58.62
41312;BME280;27061;41.648;24.568;2022-10-04T01:00:13;85948.47;;;8.27;58.45
41312;BME280;27061;41.648;24.568;2022-10-04T01:05:21;85938.09;;;8.39;57.34
41312;BME280;27061;41.648;24.568;2022-10-04T01:10:29;85926.41;;;8.27;56.51
41312;BME280;27061;41.648;24.568;2022-10-04T01:13:30;85936.78;;;8.18;57.51
41312;BME280;27061;41.648;24.568;2022-10-04T01:18:31;85947.78;;;8.36;57.70
41312;BME280;27061;41.648;24.568;2022-10-04T01:29:18;85951.16;;;8.53;55.91
41312;BME280;27061;41.648;24.568;2022-10-04T01:31:55;85925.00;;;8.38;55.52
41312;BME280;27061;41.648;24.568;2022-10-04T01:34:26;85938.75;;;8.48;55.78
41312;BME280;27061;41.648;24.568;2022-10-04T01:36:56;85940.13;;;8.49;55.55
41312;BME280;27061;41.648;24.568;2022-10-04T01:39:26;85941.50;;;8.54;54.46
41312;BME280;27061;41.648;24.568;2022-10-04T01:42:08;85935.97;;;8.54;54.62
41312;BME280;27061;41.648;24.568;2022-10-04T01:45:08;85920.16;;;8.47;55.33
41312;BME280;27061;41.648;24.568;2022-10-04T01:50:30;85931.84;;;8.49;56.24
41312;BME280;27061;41.648;24.568;2022-10-04T01:53:11;85926.38;;;8.43;56.59
41312;BME280;27061;41.648;24.568;2022-10-04T01:55:43;85911.94;;;8.32;56.43
41312;BME280;27061;41.648;24.568;2022-10-04T01:58:20;85920.16;;;8.47;56.14
41312;BME280;27061;41.648;24.568;2022-10-04T02:00:56;85911.91;;;8.38;55.69
41312;BME280;27061;41.648;24.568;2022-10-04T02:03:34;85918.78;;;8.41;55.88
41312;BME280;27061;41.648;24.568;2022-10-04T02:06:04;85900.88;;;8.30;55.78
41312;BME280;27061;41.648;24.568;2022-10-04T02:08:37;85917.38;;;8.49;55.24
41312;BME280;27061;41.648;24.568;2022-10-04T02:11:06;85932.47;;;8.64;54.69
41312;BME280;27061;41.648;24.568;2022-10-04T02:13:37;85934.59;;;8.53;55.02
41312;BME280;27061;41.648;24.568;2022-10-04T02:16:10;85930.47;;;8.54;55.10
41312;BME280;27061;41.648;24.568;2022-10-04T02:18:39;85932.53;;;8.54;55.29
41312;BME280;27061;41.648;24.568;2022-10-04T02:21:10;85900.22;;;8.32;55.20
41312;BME280;27061;41.648;24.568;2022-10-04T02:23:40;85908.47;;;8.34;56.04
41312;BME280;27061;41.648;24.568;2022-10-04T02:26:08;85929.09;;;8.49;55.96
41312;BME280;27061;41.648;24.568;2022-10-04T02:28:37;85927.72;;;8.50;55.19
41312;BME280;27061;41.648;24.568;2022-10-04T02:31:05;85938.69;;;8.60;55.53
41312;BME280;27061;41.648;24.568;2022-10-04T02:33:56;85941.50;;;8.50;56.50
41312;BME280;27061;41.648;24.568;2022-10-04T02:36:26;85902.97;;;8.26;57.17
41312;BME280;27061;41.648;24.568;2022-10-04T02:38:57;85936.69;;;8.51;57.61
41312;BME280;27061;41.648;24.568;2022-10-04T02:41:43;85941.50;;;8.50;57.59
41312;BME280;27061;41.648;24.568;2022-10-04T02:44:22;85945.63;;;8.55;57.70
41312;BME280;27061;41.648;24.568;2022-10-04T02:47:15;85954.56;;;8.60;57.54
41312;BME280;27061;41.648;24.568;2022-10-04T02:49:57;85918.13;;;8.33;57.83
41312;BME280;27061;41.648;24.568;2022-10-04T02:52:32;85945.59;;;8.61;57.06
41312;BME280;27061;41.648;24.568;2022-10-04T02:55:25;85958.00;;;8.64;56.94
41312;BME280;27061;41.648;24.568;2022-10-04T02:57:54;85938.75;;;8.48;57.24
41312;BME280;27061;41.648;24.568;2022-10-04T03:00:32;85951.81;;;8.62;56.88
41312;BME280;27061;41.648;24.568;2022-10-04T03:05:37;85946.94;;;8.70;56.39
41312;BME280;27061;41.648;24.568;2022-10-04T03:08:06;85933.97;;;8.44;56.99
41312;BME280;27061;41.648;24.568;2022-10-04T03:10:34;85958.00;;;8.68;56.55
41312;BME280;27061;41.648;24.568;2022-10-04T03:13:01;85933.91;;;8.49;56.79
41312;BME280;27061;41.648;24.568;2022-10-04T03:15:29;85931.16;;;8.55;56.55
41312;BME280;27061;41.648;24.568;2022-10-04T03:17:57;85955.22;;;8.70;56.81
41312;BME280;27061;41.648;24.568;2022-10-04T03:20:25;85929.09;;;8.53;55.89
41312;BME280;27061;41.648;24.568;2022-10-04T03:22:54;85927.69;;;8.56;55.79
41312;BME280;27061;41.648;24.568;2022-10-04T03:25:28;85951.78;;;8.66;56.34
41312;BME280;27061;41.648;24.568;2022-10-04T03:28:00;85945.59;;;8.65;56.08
41312;BME280;27061;41.648;24.568;2022-10-04T03:30:29;85916.03;;;8.43;55.66
41312;BME280;27061;41.648;24.568;2022-10-04T03:32:58;85958.69;;;8.65;55.45
41312;BME280;27061;41.648;24.568;2022-10-04T03:35:27;85962.16;;;8.61;55.13
41312;BME280;27061;41.648;24.568;2022-10-04T03:37:56;85951.88;;;8.46;55.66
41312;BME280;27061;41.648;24.568;2022-10-04T03:40:28;85934.66;;;8.39;55.29
41312;BME280;27061;41.648;24.568;2022-10-04T03:42:58;85923.63;;;8.29;55.56
41312;BME280;27061;41.648;24.568;2022-10-04T03:45:26;85951.88;;;8.46;56.13
41312;BME280;27061;41.648;24.568;2022-10-04T03:47:59;85950.56;;;8.16;57.30
41312;BME280;27061;41.648;24.568;2022-10-04T03:50:34;85956.78;;;8.13;57.52
41312;BME280;27061;41.648;24.568;2022-10-04T03:53:23;85949.94;;;7.99;57.74
41312;BME280;27061;41.648;24.568;2022-10-04T03:55:53;85951.28;;;8.15;56.97
41312;BME280;27061;41.648;24.568;2022-10-04T03:58:21;85960.28;;;7.97;58.13
41312;BME280;27061;41.648;24.568;2022-10-04T04:03:27;85938.94;;;7.83;58.89
41312;BME280;27061;41.648;24.568;2022-10-04T04:05:58;85967.16;;;8.02;59.09
41312;BME280;27061;41.648;24.568;2022-10-04T04:08:36;85965.03;;;8.17;57.48
41312;BME280;27061;41.648;24.568;2022-10-04T04:11:13;85955.41;;;8.07;57.72
41312;BME280;27061;41.648;24.568;2022-10-04T04:13:49;85945.13;;;7.94;57.87
41312;BME280;27061;41.648;24.568;2022-10-04T04:16:19;85932.03;;;7.90;57.05
41312;BME280;27061;41.648;24.568;2022-10-04T04:18:47;85940.31;;;7.88;56.96
41312;BME280;27061;41.648;24.568;2022-10-04T04:21:17;85969.22;;;8.16;56.42
41312;BME280;27061;41.648;24.568;2022-10-04T04:23:49;85947.19;;;7.91;56.83
41312;BME280;27061;41.648;24.568;2022-10-04T04:26:35;85948.56;;;7.96;57.57
41312;BME280;27061;41.648;24.568;2022-10-04T04:31:46;85980.25;;;8.14;58.74
41312;BME280;27061;41.648;24.568;2022-10-04T04:34:23;85971.97;;;8.05;58.96
41312;BME280;27061;41.648;24.568;2022-10-04T04:36:56;85989.88;;;8.17;59.09
41312;BME280;27061;41.648;24.568;2022-10-04T04:39:25;85977.44;;;8.20;59.37
41312;BME280;27061;41.648;24.568;2022-10-04T04:45:13;85987.78;;;8.23;57.68
41312;BME280;27061;41.648;24.568;2022-10-04T04:47:58;85965.09;;;8.04;57.17
41312;BME280;27061;41.648;24.568;2022-10-04T04:50:38;85972.03;;;7.83;59.08
41312;BME280;27061;41.648;24.568;2022-10-04T04:53:16;85991.94;;;8.08;58.93
41312;BME280;27061;41.648;24.568;2022-10-04T04:55:53;85992.66;;;8.13;58.65
41312;BME280;27061;41.648;24.568;2022-10-04T04:58:32;85991.25;;;8.07;58.75
41312;BME280;27061;41.648;24.568;2022-10-04T05:01:04;85978.88;;;7.98;57.99
41312;BME280;27061;41.648;24.568;2022-10-04T05:03:32;85987.16;;;8.02;56.16
41312;BME280;27061;41.648;24.568;2022-10-04T05:06:01;85996.78;;;8.14;56.78
41312;BME280;27061;41.648;24.568;2022-10-04T05:08:32;85989.88;;;8.11;57.37
41312;BME280;27061;41.648;24.568;2022-10-04T05:13:49;86011.25;;;8.12;59.74
41312;BME280;27061;41.648;24.568;2022-10-04T05:16:24;86020.22;;;8.06;58.87
41312;BME280;27061;41.648;24.568;2022-10-04T05:19:05;86013.31;;;8.16;58.92
41312;BME280;27061;41.648;24.568;2022-10-04T05:21:34;86005.06;;;8.16;60.72
41312;BME280;27061;41.648;24.568;2022-10-04T05:24:11;85981.63;;;7.98;61.70
41312;BME280;27061;41.648;24.568;2022-10-04T05:26:40;86027.06;;;8.40;61.19
41312;BME280;27061;41.648;24.568;2022-10-04T05:29:16;86010.50;;;8.38;60.28
41312;BME280;27061;41.648;24.568;2022-10-04T05:31:56;86015.34;;;8.39;59.09
41312;BME280;27061;41.648;24.568;2022-10-04T05:34:29;85996.06;;;8.31;59.73
41312;BME280;27061;41.648;24.568;2022-10-04T05:37:29;86022.91;;;8.57;60.59
41312;BME280;27061;41.648;24.568;2022-10-04T05:42:39;86022.84;;;8.69;57.63
41312;BME280;27061;41.648;24.568;2022-10-04T05:45:25;86010.44;;;8.58;58.06
41312;BME280;27061;41.648;24.568;2022-10-04T05:47:54;86028.34;;;8.71;59.20
41312;BME280;27061;41.648;24.568;2022-10-04T05:50:36;86024.22;;;8.74;59.48
41312;BME280;27061;41.648;24.568;2022-10-04T05:53:26;86032.44;;;8.80;57.99
41312;BME280;27061;41.648;24.568;2022-10-04T05:59:03;86030.47;;;8.63;57.42
41312;BME280;27061;41.648;24.568;2022-10-04T06:01:52;86017.38;;;8.57;55.93
41312;BME280;27061;41.648;24.568;2022-10-04T06:07:46;85989.81;;;8.37;58.88
41312;BME280;27061;41.648;24.568;2022-10-04T06:10:40;86047.66;;;8.73;58.86
41312;BME280;27061;41.648;24.568;2022-10-04T06:16:17;86022.78;;;8.81;56.46
41312;BME280;27061;41.648;24.568;2022-10-04T06:24:28;86029.06;;;8.64;58.31
41312;BME280;27061;41.648;24.568;2022-10-04T06:27:03;85998.09;;;8.43;58.70
41312;BME280;27061;41.648;24.568;2022-10-04T06:29:38;86057.28;;;8.85;59.17
41312;BME280;27061;41.648;24.568;2022-10-04T06:35:12;86046.91;;;8.91;59.21
41312;BME280;27061;41.648;24.568;2022-10-04T06:48:52;86062.72;;;9.07;58.61
41312;BME280;27061;41.648;24.568;2022-10-04T06:52:25;86061.41;;;8.92;58.52
41312;BME280;27061;41.648;24.568;2022-10-04T06:57:37;86029.03;;;8.70;56.54
41312;BME280;27061;41.648;24.568;2022-10-04T07:00:15;86048.31;;;8.88;57.77
41312;BME280;27061;41.648;24.568;2022-10-04T07:05:24;86059.34;;;8.90;57.12
41312;BME280;27061;41.648;24.568;2022-10-04T07:08:23;86065.50;;;9.03;57.86
41312;BME280;27061;41.648;24.568;2022-10-04T07:27:49;86086.81;;;9.23;60.00
41312;BME280;27061;41.648;24.568;2022-10-04T07:30:46;86081.38;;;9.08;58.64
41312;BME280;27061;41.648;24.568;2022-10-04T07:33:17;86081.88;;;9.45;57.98
41312;BME280;27061;41.648;24.568;2022-10-04T07:35:52;86066.75;;;9.30;58.01
41312;BME280;27061;41.648;24.568;2022-10-04T07:38:28;86094.91;;;9.63;59.54
41312;BME280;27061;41.648;24.568;2022-10-04T07:41:04;86099.69;;;9.71;57.84
41312;BME280;27061;41.648;24.568;2022-10-04T07:46:19;86098.31;;;9.74;58.13
41312;BME280;27061;41.648;24.568;2022-10-04T07:48:48;86099.66;;;9.79;54.63
41312;BME280;27061;41.648;24.568;2022-10-04T07:51:26;86084.41;;;9.84;56.65
41312;BME280;27061;41.648;24.568;2022-10-04T07:54:50;86096.81;;;9.93;57.04
41312;BME280;27061;41.648;24.568;2022-10-04T08:03:43;86095.38;;;9.96;53.60
41312;BME280;27061;41.648;24.568;2022-10-04T08:11:39;86105.66;;;10.10;57.10
41312;BME280;27061;41.648;24.568;2022-10-04T08:32:41;86113.16;;;10.30;53.76
41312;BME280;27061;41.648;24.568;2022-10-04T08:52:08;86146.16;;;10.58;54.70
41312;BME280;27061;41.648;24.568;2022-10-04T09:03:35;86151.63;;;10.62;52.17
41312;BME280;27061;41.648;24.568;2022-10-04T09:06:39;86153.00;;;10.67;53.62
41312;BME280;27061;41.648;24.568;2022-10-04T09:12:49;86144.09;;;10.52;53.56
41312;BME280;27061;41.648;24.568;2022-10-04T09:21:06;86163.41;;;10.60;52.65
41312;BME280;27061;41.648;24.568;2022-10-04T09:26:21;86164.16;;;10.59;53.97
41312;BME280;27061;41.648;24.568;2022-10-04T09:32:11;86172.47;;;10.55;52.63
41312;BME280;27061;41.648;24.568;2022-10-04T09:54:46;86193.25;;;10.52;53.78
41312;BME280;27061;41.648;24.568;2022-10-04T09:57:40;86187.78;;;10.44;54.20
41312;BME280;27061;41.648;24.568;2022-10-04T10:11:51;86192.06;;;10.22;54.77
41312;BME280;27061;41.648;24.568;2022-10-04T10:31:13;86198.34;;;10.11;56.03
41312;BME280;27061;41.648;24.568;2022-10-04T10:36:59;86176.41;;;9.74;56.92
41312;BME280;27061;41.648;24.568;2022-10-04T10:48:04;86196.22;;;10.21;56.28
41312;BME280;27061;41.648;24.568;2022-10-04T10:57:41;86199.59;;;10.34;56.35
41312;BME280;27061;41.648;24.568;2022-10-04T11:36:58;86211.25;;;10.51;57.50
41312;BME280;27061;41.648;24.568;2022-10-04T11:42:14;86212.47;;;10.74;53.91
41312;BME280;27061;41.648;24.568;2022-10-04T11:50:55;86215.84;;;10.83;54.18
41312;BME280;27061;41.648;24.568;2022-10-04T12:02:35;86225.97;;;11.13;53.34
41312;BME280;27061;41.648;24.568;2022-10-04T12:14:00;86231.41;;;11.27;52.56
41312;BME280;27061;41.648;24.568;2022-10-04T12:53:20;86224.88;;;12.20;49.63
41312;BME280;27061;41.648;24.568;2022-10-04T13:04:35;86222.00;;;12.28;46.97
41312;BME280;27061;41.648;24.568;2022-10-04T13:07:20;86234.38;;;12.39;46.87
41312;BME280;27061;41.648;24.568;2022-10-04T13:10:02;86228.69;;;12.48;48.43
41312;BME280;27061;41.648;24.568;2022-10-04T13:19:15;86240.25;;;12.64;48.13
41312;BME280;27061;41.648;24.568;2022-10-04T13:24:36;86218.91;;;12.51;45.53
41312;BME280;27061;41.648;24.568;2022-10-04T13:32:51;86246.69;;;12.51;45.47
41312;BME280;27061;41.648;24.568;2022-10-04T13:35:30;86249.41;;;12.57;47.92
41312;BME280;27061;41.648;24.568;2022-10-04T13:38:23;86253.53;;;12.60;47.60
41312;BME280;27061;41.648;24.568;2022-10-04T13:41:07;86255.53;;;12.65;46.98
41312;BME280;27061;41.648;24.568;2022-10-04T13:44:00;86257.63;;;12.65;46.67
41312;BME280;27061;41.648;24.568;2022-10-04T13:52:35;86252.78;;;12.63;46.96
41312;BME280;27061;41.648;24.568;2022-10-04T13:55:31;86258.44;;;12.55;47.76
41312;BME280;27061;41.648;24.568;2022-10-04T14:04:51;86247.34;;;12.55;47.49
41312;BME280;27061;41.648;24.568;2022-10-04T14:21:42;86279.94;;;12.59;46.13
41312;BME280;27061;41.648;24.568;2022-10-04T14:32:49;86276.63;;;12.46;47.11
41312;BME280;27061;41.648;24.568;2022-10-04T14:54:53;86270.00;;;12.19;48.44
41312;BME280;27061;41.648;24.568;2022-10-04T15:00:53;86265.81;;;12.20;47.46
41312;BME280;27061;41.648;24.568;2022-10-04T15:06:42;86279.06;;;12.17;47.36
41312;BME280;27061;41.648;24.568;2022-10-04T15:12:57;86286.81;;;12.06;47.24
41312;BME280;27061;41.648;24.568;2022-10-04T15:17:54;86268.38;;;11.77;47.58
41312;BME280;27061;41.648;24.568;2022-10-04T15:23:31;86298.75;;;11.89;48.05
41312;BME280;27061;41.648;24.568;2022-10-04T15:34:05;86314.09;;;11.82;47.90
41312;BME280;27061;41.648;24.568;2022-10-04T15:36:51;86293.41;;;11.66;48.70
41312;BME280;27061;41.648;24.568;2022-10-04T15:42:08;86305.97;;;11.57;48.88
41312;BME280;27061;41.648;24.568;2022-10-04T15:56:35;86317.84;;;11.48;49.98
41312;BME280;27061;41.648;24.568;2022-10-04T16:05:13;86300.84;;;11.07;49.58
41312;BME280;27061;41.648;24.568;2022-10-04T16:07:29;86335.34;;;11.24;49.57
41312;BME280;27061;41.648;24.568;2022-10-04T16:15:40;86320.31;;;11.00;49.45
41312;BME280;27061;41.648;24.568;2022-10-04T16:55:51;86380.81;;;10.47;50.60
41312;BME280;27061;41.648;24.568;2022-10-04T17:09:36;86391.22;;;10.41;51.12
41312;BME280;27061;41.648;24.568;2022-10-04T17:24:04;86412.03;;;10.21;52.13
41312;BME280;27061;41.648;24.568;2022-10-04T17:29:42;86402.34;;;10.18;52.18
41312;BME280;27061;41.648;24.568;2022-10-04T17:32:26;86389.94;;;9.99;52.19
41312;BME280;27061;41.648;24.568;2022-10-04T17:38:00;86412.72;;;10.10;52.50
41312;BME280;27061;41.648;24.568;2022-10-04T17:40:59;86419.66;;;10.05;52.55
41312;BME280;27061;41.648;24.568;2022-10-04T17:48:58;86409.31;;;9.87;52.49
41312;BME280;27061;41.648;24.568;2022-10-04T17:51:48;86442.50;;;9.95;52.62
41312;BME280;27061;41.648;24.568;2022-10-04T18:00:14;86457.72;;;9.82;53.53
41312;BME280;27061;41.648;24.568;2022-10-04T18:08:19;86442.53;;;9.63;53.64
41312;BME280;27061;41.648;24.568;2022-10-04T18:13:21;86472.91;;;9.75;54.19
41312;BME280;27061;41.648;24.568;2022-10-04T18:16:09;86421.81;;;9.31;54.08
41312;BME280;27061;41.648;24.568;2022-10-04T18:18:41;86474.34;;;9.74;54.54
41312;BME280;27061;41.648;24.568;2022-10-04T18:26:21;86468.78;;;9.62;55.32
41312;BME280;27061;41.648;24.568;2022-10-04T18:28:49;86443.22;;;9.47;55.36
41312;BME280;27061;41.648;24.568;2022-10-04T18:34:31;86468.78;;;9.72;55.69
41312;BME280;27061;41.648;24.568;2022-10-04T18:37:19;86445.28;;;9.40;56.07
41312;BME280;27061;41.648;24.568;2022-10-04T18:39:48;86479.16;;;9.61;56.62
41312;BME280;27061;41.648;24.568;2022-10-04T18:42:28;86448.03;;;9.36;56.41
41312;BME280;27061;41.648;24.568;2022-10-04T18:44:57;86464.63;;;9.48;56.32
41312;BME280;27061;41.648;24.568;2022-10-04T18:49:59;86503.34;;;9.65;56.54
41312;BME280;27061;41.648;24.568;2022-10-04T18:57:35;86508.19;;;9.60;56.91
41312;BME280;27061;41.648;24.568;2022-10-04T19:00:22;86497.78;;;9.46;57.08
41312;BME280;27061;41.648;24.568;2022-10-04T19:06:23;86499.19;;;9.39;57.04
41312;BME280;27061;41.648;24.568;2022-10-04T19:17:25;86525.47;;;9.59;56.71
41312;BME280;27061;41.648;24.568;2022-10-04T19:20:04;86517.16;;;9.61;56.11
41312;BME280;27061;41.648;24.568;2022-10-04T19:25:34;86483.97;;;9.32;56.34
41312;BME280;27061;41.648;24.568;2022-10-04T19:31:22;86529.59;;;9.55;56.81
41312;BME280;27061;41.648;24.568;2022-10-04T19:39:45;86530.94;;;9.32;57.81
41312;BME280;27061;41.648;24.568;2022-10-04T19:44:38;86540.63;;;9.41;58.21
41312;BME280;27061;41.648;24.568;2022-10-04T19:47:45;86537.88;;;9.41;58.05
41312;BME280;27061;41.648;24.568;2022-10-04T19:50:18;86542.03;;;9.48;57.88
41312;BME280;27061;41.648;24.568;2022-10-04T19:53:13;86525.41;;;9.36;58.04
41312;BME280;27061;41.648;24.568;2022-10-04T19:56:03;86537.88;;;9.39;58.20
41312;BME280;27061;41.648;24.568;2022-10-04T19:58:39;86515.00;;;9.14;58.51
41312;BME280;27061;41.648;24.568;2022-10-04T20:03:39;86540.63;;;9.45;58.40
41312;BME280;27061;41.648;24.568;2022-10-04T20:06:06;86524.00;;;9.21;58.72
41312;BME280;27061;41.648;24.568;2022-10-04T20:11:50;86554.44;;;9.31;58.80
41312;BME280;27061;41.648;24.568;2022-10-04T20:19:20;86557.19;;;9.27;59.07
41312;BME280;27061;41.648;24.568;2022-10-04T20:27:02;86571.00;;;9.33;59.19
41312;BME280;27061;41.648;24.568;2022-10-04T20:32:05;86572.41;;;9.36;59.03
41312;BME280;27061;41.648;24.568;2022-10-04T20:37:06;86569.63;;;9.34;58.74
41312;BME280;27061;41.648;24.568;2022-10-04T20:42:09;86568.25;;;9.39;58.46
41312;BME280;27061;41.648;24.568;2022-10-04T20:44:49;86577.25;;;9.44;58.67
41312;BME280;27061;41.648;24.568;2022-10-04T20:49:54;86573.78;;;9.45;58.68
41312;BME280;27061;41.648;24.568;2022-10-04T20:52:28;86576.56;;;9.41;58.43
41312;BME280;27061;41.648;24.568;2022-10-04T20:55:00;86545.44;;;9.27;58.06
41312;BME280;27061;41.648;24.568;2022-10-04T20:57:29;86570.34;;;9.47;58.08
41312;BME280;27061;41.648;24.568;2022-10-04T20:59:56;86552.34;;;9.34;57.79
41312;BME280;27061;41.648;24.568;2022-10-04T21:02:24;86572.41;;;9.44;58.15
41312;BME280;27061;41.648;24.568;2022-10-04T21:04:53;86577.25;;;9.38;58.21
41312;BME280;27061;41.648;24.568;2022-10-04T21:07:37;86578.63;;;9.43;57.92
41312;BME280;27061;41.648;24.568;2022-10-04T21:10:18;86521.88;;;8.97;58.27
41312;BME280;27061;41.648;24.568;2022-10-04T21:12:45;86528.09;;;9.04;58.48
41312;BME280;27061;41.648;24.568;2022-10-04T21:18:03;86554.41;;;9.19;58.83
41312;BME280;27061;41.648;24.568;2022-10-04T21:20:50;86570.97;;;9.25;58.92
41312;BME280;27061;41.648;24.568;2022-10-04T21:23:30;86582.03;;;9.33;59.02
41312;BME280;27061;41.648;24.568;2022-10-04T21:26:21;86575.84;;;9.35;59.32
41312;BME280;27061;41.648;24.568;2022-10-04T21:28:56;86537.06;;;9.04;59.32
41312;BME280;27061;41.648;24.568;2022-10-04T21:31:23;86580.00;;;9.38;59.28
41312;BME280;27061;41.648;24.568;2022-10-04T21:33:50;86584.13;;;9.33;59.45
41312;BME280;27061;41.648;24.568;2022-10-04T21:36:18;86565.44;;;9.19;58.98
41312;BME280;27061;41.648;24.568;2022-10-04T21:38:44;86544.66;;;9.04;59.15
41312;BME280;27061;41.648;24.568;2022-10-04T21:41:11;86550.19;;;9.02;59.42
41312;BME280;27061;41.648;24.568;2022-10-04T21:43:38;86579.28;;;9.21;59.39
41312;BME280;27061;41.648;24.568;2022-10-04T21:46:05;86584.09;;;9.21;59.18
41312;BME280;27061;41.648;24.568;2022-10-04T21:48:32;86546.03;;;8.97;59.04
41312;BME280;27061;41.648;24.568;2022-10-04T21:50:59;86579.94;;;9.15;59.32
41312;BME280;27061;41.648;24.568;2022-10-04T21:53:26;86555.03;;;8.99;59.22
41312;BME280;27061;41.648;24.568;2022-10-04T21:55:53;86582.03;;;9.21;58.96
41312;BME280;27061;41.648;24.568;2022-10-04T21:58:20;86559.88;;;9.07;58.78
41312;BME280;27061;41.648;24.568;2022-10-04T22:00:47;86571.63;;;9.07;58.95
41312;BME280;27061;41.648;24.568;2022-10-04T22:03:14;86579.25;;;9.17;58.31
41312;BME280;27061;41.648;24.568;2022-10-04T22:05:41;86555.00;;;8.97;58.53
41312;BME280;27061;41.648;24.568;2022-10-04T22:08:08;86557.09;;;9.03;58.33
41312;BME280;27061;41.648;24.568;2022-10-04T22:10:35;86569.53;;;9.12;58.28
41312;BME280;27061;41.648;24.568;2022-10-04T22:13:02;86537.69;;;8.85;58.19
41312;BME280;27061;41.648;24.568;2022-10-04T22:15:29;86572.31;;;9.08;57.95
41312;BME280;27061;41.648;24.568;2022-10-04T22:17:56;86572.28;;;9.04;58.20
41312;BME280;27061;41.648;24.568;2022-10-04T22:20:23;86572.28;;;9.04;58.38
41312;BME280;27061;41.648;24.568;2022-10-04T22:22:52;86568.09;;;8.91;58.30
41312;BME280;27061;41.648;24.568;2022-10-04T22:25:21;86584.03;;;9.00;58.02
41312;BME280;27061;41.648;24.568;2022-10-04T22:27:49;86557.00;;;8.76;58.27
41312;BME280;27061;41.648;24.568;2022-10-04T22:30:26;86580.56;;;8.98;57.61
41312;BME280;27061;41.648;24.568;2022-10-04T22:32:55;86551.44;;;8.68;58.02
41312;BME280;27061;41.648;24.568;2022-10-04T22:35:23;86550.69;;;8.56;57.99
41312;BME280;27061;41.648;24.568;2022-10-04T22:37:50;86561.03;;;8.55;58.62
41312;BME280;27061;41.648;24.568;2022-10-04T22:40:20;86590.13;;;8.76;58.37
41312;BME280;27061;41.648;24.568;2022-10-04T22:42:53;86588.03;;;8.75;58.07
41312;BME280;27061;41.648;24.568;2022-10-04T22:45:24;86592.88;;;8.76;57.96
41312;BME280;27061;41.648;24.568;2022-10-04T22:47:55;86588.00;;;8.67;58.19
41312;BME280;27061;41.648;24.568;2022-10-04T22:50:32;86556.16;;;8.46;57.95
41312;BME280;27061;41.648;24.568;2022-10-04T22:53:12;86597.66;;;8.70;57.96
41312;BME280;27061;41.648;24.568;2022-10-04T22:55:39;86588.69;;;8.67;57.95
41312;BME280;27061;41.648;24.568;2022-10-04T22:58:11;86583.78;;;8.56;57.83
41312;BME280;27061;41.648;24.568;2022-10-04T23:00:40;86583.06;;;8.51;57.87
41312;BME280;27061;41.648;24.568;2022-10-04T23:03:30;86587.28;;;8.62;58.00
41312;BME280;27061;41.648;24.568;2022-10-04T23:05:59;86575.47;;;8.46;57.63
41312;BME280;27061;41.648;24.568;2022-10-04T23:08:27;86601.13;;;8.68;57.62
41312;BME280;27061;41.648;24.568;2022-10-04T23:10:56;86606.63;;;8.66;57.93
41312;BME280;27061;41.648;24.568;2022-10-04T23:13:25;86599.75;;;8.67;57.81
41312;BME280;27061;41.648;24.568;2022-10-04T23:15:57;86599.75;;;8.67;57.84
41312;BME280;27061;41.648;24.568;2022-10-04T23:18:25;86574.81;;;8.53;57.93
41312;BME280;27061;41.648;24.568;2022-10-04T23:20:57;86603.88;;;8.66;57.99
41312;BME280;27061;41.648;24.568;2022-10-04T23:23:26;86601.13;;;8.68;57.72
41312;BME280;27061;41.648;24.568;2022-10-04T23:25:54;86591.47;;;8.73;57.54
41312;BME280;27061;41.648;24.568;2022-10-04T23:28:21;86601.13;;;8.66;57.65
41312;BME280;27061;41.648;24.568;2022-10-04T23:31:10;86596.88;;;8.53;57.70
41312;BME280;27061;41.648;24.568;2022-10-04T23:33:39;86588.59;;;8.51;57.67
41312;BME280;27061;41.648;24.568;2022-10-04T23:36:12;86590.59;;;8.40;58.02
41312;BME280;27061;41.648;24.568;2022-10-04T23:38:42;86566.34;;;8.27;57.76
41312;BME280;27061;41.648;24.568;2022-10-04T23:41:11;86582.97;;;8.35;57.95
41312;BME280;27061;41.648;24.568;2022-10-04T23:43:38;86563.53;;;8.21;57.98
41312;BME280;27061;41.648;24.568;2022-10-04T23:46:18;86560.03;;;8.10;57.94
41312;BME280;27061;41.648;24.568;2022-10-04T23:48:46;86609.28;;;8.46;57.98
41312;BME280;27061;41.648;24.568;2022-10-04T23:51:16;86603.75;;;8.46;58.02
41312;BME280;27061;41.648;24.568;2022-10-04T23:53:45;86579.41;;;8.22;57.83
41312;BME280;27061;41.648;24.568;2022-10-04T23:56:23;86603.75;;;8.46;58.30
41312;BME280;27061;41.648;24.568;2022-10-04T23:58:52;86605.84;;;8.52;57.75
